sensor_id;sensor_type;location;lat;lon;timestamp;pressure;altitude;pressure_sealevel;temperature;humidity
5500;BME280;2772;42.700;23.304;2023-03-23T00:01:29;95070.31;;;9.84;100.00
5500;BME280;2772;42.700;23.304;2023-03-23T00:03:58;95060.03;;;9.91;100.00
5500;BME280;2772;42.700;23.304;2023-03-23T00:06:27;95060.22;;;9.94;100.00
5500;BME280;2772;42.700;23.304;2023-03-23T00:09:00;95062.22;;;9.89;100.00
5500;BME280;2772;42.700;23.304;2023-03-23T00:11:29;95061.00;;;9.95;100.00
5500;BME280;2772;42.700;23.304;2023-03-23T00:13:59;95066.31;;;9.95;100.00
5500;BME280;2772;42.700;23.304;2023-03-23T00:16:28;95060.69;;;9.96;100.00
5500;BME280;2772;42.700;23.304;2023-03-23T00:18:57;95057.22;;;10.09;100.00
5500;BME280;2772;42.700;23.304;2023-03-23T00:21:27;95068.53;;;10.15;100.00
5500;BME280;2772;42.700;23.304;2023-03-23T00:24:02;95065.09;;;10.14;100.00
5500;BME280;2772;42.700;23.304;2023-03-23T00:26:29;95067.31;;;10.21;100.00
5500;BME280;2772;42.700;23.304;2023-03-23T00:28:59;95074.19;;;10.22;100.00
5500;BME280;2772;42.700;23.304;2023-03-23T00:31:27;95068.22;;;10.16;100.00
5500;BME280;2772;42.700;23.304;2023-03-23T00:33:57;95079.03;;;10.20;100.00
5500;BME280;2772;42.700;23.304;2023-03-23T00:36:24;95088.06;;;10.10;100.00
5500;BME280;2772;42.700;23.304;2023-03-23T00:38:53;95086.00;;;10.07;100.00
5500;BME280;2772;42.700;23.304;2023-03-23T00:41:23;95083.22;;;10.12;100.00
5500;BME280;2772;42.700;23.304;2023-03-23T00:43:52;95088.78;;;10.02;100.00
5500;BME280;2772;42.700;23.304;2023-03-23T00:46:19;95092.28;;;10.11;100.00
5500;BME280;2772;42.700;23.304;2023-03-23T00:48:46;95083.25;;;9.99;100.00
5500;BME280;2772;42.700;23.304;2023-03-23T00:51:13;95081.66;;;9.98;100.00
5500;BME280;2772;42.700;23.304;2023-03-23T00:53:40;95086.94;;;9.89;100.00
5500;BME280;2772;42.700;23.304;2023-03-23T00:56:09;95088.38;;;9.95;100.00
5500;BME280;2772;42.700;23.304;2023-03-23T00:58:35;95095.28;;;9.96;100.00
5500;BME280;2772;42.700;23.304;2023-03-23T01:01:03;95104.97;;;9.92;100.00
5500;BME280;2772;42.700;23.304;2023-03-23T01:03:29;95096.47;;;9.90;100.00
5500;BME280;2772;42.700;23.304;2023-03-23T01:05:56;95094.53;;;9.82;100.00
5500;BME280;2772;42.700;23.304;2023-03-23T01:08:24;95104.28;;;9.64;100.00
5500;BME280;2772;42.700;23.304;2023-03-23T01:10:50;95097.97;;;9.60;100.00
5500;BME280;2772;42.700;23.304;2023-03-23T01:13:20;95098.56;;;9.57;100.00
5500;BME280;2772;42.700;23.304;2023-03-23T01:15:48;95097.78;;;9.57;100.00
5500;BME280;2772;42.700;23.304;2023-03-23T01:18:14;95092.97;;;9.81;100.00
5500;BME280;2772;42.700;23.304;2023-03-23T01:20:41;95092.38;;;9.84;100.00
5500;BME280;2772;42.700;23.304;2023-03-23T01:23:08;95091.06;;;9.95;100.00
5500;BME280;2772;42.700;23.304;2023-03-23T01:25:35;95085.19;;;10.07;100.00
5500;BME280;2772;42.700;23.304;2023-03-23T01:28:02;95075.59;;;9.97;100.00
5500;BME280;2772;42.700;23.304;2023-03-23T01:30:30;95077.41;;;9.88;100.00
5500;BME280;2772;42.700;23.304;2023-03-23T01:32:57;95078.47;;;9.87;100.00
5500;BME280;2772;42.700;23.304;2023-03-23T01:35:24;95088.25;;;9.78;100.00
5500;BME280;2772;42.700;23.304;2023-03-23T01:37:50;95071.69;;;9.81;100.00
5500;BME280;2772;42.700;23.304;2023-03-23T01:40:17;95069.84;;;9.82;100.00
5500;BME280;2772;42.700;23.304;2023-03-23T01:42:44;95071.75;;;9.68;100.00
5500;BME280;2772;42.700;23.304;2023-03-23T01:45:31;95067.41;;;9.36;100.00
5500;BME280;2772;42.700;23.304;2023-03-23T01:48:10;95060.53;;;9.35;100.00
5500;BME280;2772;42.700;23.304;2023-03-23T01:50:51;95055.13;;;9.26;100.00
5500;BME280;2772;42.700;23.304;2023-03-23T01:53:20;95063.50;;;9.20;100.00
5500;BME280;2772;42.700;23.304;2023-03-23T01:55:49;95050.47;;;9.10;100.00
5500;BME280;2772;42.700;23.304;2023-03-23T01:58:21;95049.66;;;9.09;100.00
5500;BME280;2772;42.700;23.304;2023-03-23T02:00:52;95054.88;;;9.14;100.00
5500;BME280;2772;42.700;23.304;2023-03-23T02:03:19;95049.25;;;9.16;100.00
5500;BME280;2772;42.700;23.304;2023-03-23T02:05:49;95050.56;;;9.05;100.00
5500;BME280;2772;42.700;23.304;2023-03-23T02:08:18;95064.16;;;8.90;100.00
5500;BME280;2772;42.700;23.304;2023-03-23T02:10:45;95054.31;;;8.90;100.00
5500;BME280;2772;42.700;23.304;2023-03-23T02:13:12;95060.72;;;8.76;100.00
5500;BME280;2772;42.700;23.304;2023-03-23T02:15:57;95063.63;;;8.74;100.00
5500;BME280;2772;42.700;23.304;2023-03-23T02:18:40;95062.50;;;8.80;100.00
5500;BME280;2772;42.700;23.304;2023-03-23T02:21:49;95064.34;;;8.80;100.00
5500;BME280;2772;42.700;23.304;2023-03-23T02:27:52;95065.53;;;8.74;100.00
5500;BME280;2772;42.700;23.304;2023-03-23T02:30:30;95061.09;;;8.83;100.00
5500;BME280;2772;42.700;23.304;2023-03-23T02:33:35;95049.28;;;8.89;100.00
5500;BME280;2772;42.700;23.304;2023-03-23T02:36:10;95054.81;;;8.92;100.00
5500;BME280;2772;42.700;23.304;2023-03-23T02:38:43;95056.47;;;9.02;100.00
5500;BME280;2772;42.700;23.304;2023-03-23T02:41:18;95064.81;;;9.09;100.00
5500;BME280;2772;42.700;23.304;2023-03-23T02:43:46;95065.50;;;9.14;100.00
5500;BME280;2772;42.700;23.304;2023-03-23T02:46:15;95066.41;;;9.10;100.00
5500;BME280;2772;42.700;23.304;2023-03-23T02:48:45;95061.94;;;9.19;100.00
5500;BME280;2772;42.700;23.304;2023-03-23T02:51:16;95074.97;;;9.07;100.00
5500;BME280;2772;42.700;23.304;2023-03-23T02:53:44;95081.25;;;9.11;100.00
5500;BME280;2772;42.700;23.304;2023-03-23T02:56:12;95079.47;;;9.06;100.00
5500;BME280;2772;42.700;23.304;2023-03-23T02:58:40;95084.09;;;9.01;100.00
5500;BME280;2772;42.700;23.304;2023-03-23T03:01:16;95090.28;;;8.96;100.00
5500;BME280;2772;42.700;23.304;2023-03-23T03:04:05;95086.06;;;8.95;100.00
5500;BME280;2772;42.700;23.304;2023-03-23T03:06:36;95089.31;;;8.92;100.00
5500;BME280;2772;42.700;23.304;2023-03-23T03:09:14;95092.78;;;8.93;100.00
5500;BME280;2772;42.700;23.304;2023-03-23T03:11:47;95105.16;;;8.84;100.00
5500;BME280;2772;42.700;23.304;2023-03-23T03:14:20;95110.16;;;8.85;100.00
5500;BME280;2772;42.700;23.304;2023-03-23T03:16:52;95112.53;;;8.87;100.00
5500;BME280;2772;42.700;23.304;2023-03-23T03:19:26;95107.22;;;8.87;100.00
5500;BME280;2772;42.700;23.304;2023-03-23T03:21:54;95117.34;;;8.85;100.00
5500;BME280;2772;42.700;23.304;2023-03-23T03:24:24;95105.72;;;8.81;100.00
5500;BME280;2772;42.700;23.304;2023-03-23T03:26:54;95113.22;;;8.79;100.00
5500;BME280;2772;42.700;23.304;2023-03-23T03:29:25;95106.03;;;8.79;100.00
5500;BME280;2772;42.700;23.304;2023-03-23T03:31:54;95112.22;;;8.75;100.00
5500;BME280;2772;42.700;23.304;2023-03-23T03:34:23;95115.47;;;8.72;100.00
5500;BME280;2772;42.700;23.304;2023-03-23T03:36:53;95114.78;;;8.66;100.00
5500;BME280;2772;42.700;23.304;2023-03-23T03:39:21;95116.72;;;8.61;100.00
5500;BME280;2772;42.700;23.304;2023-03-23T03:41:48;95126.47;;;8.52;100.00
5500;BME280;2772;42.700;23.304;2023-03-23T03:44:14;95120.53;;;8.41;100.00
5500;BME280;2772;42.700;23.304;2023-03-23T03:46:41;95119.09;;;8.49;100.00
5500;BME280;2772;42.700;23.304;2023-03-23T03:49:10;95116.63;;;8.52;100.00
5500;BME280;2772;42.700;23.304;2023-03-23T03:51:40;95116.81;;;8.56;100.00
5500;BME280;2772;42.700;23.304;2023-03-23T03:54:07;95108.28;;;8.59;100.00
5500;BME280;2772;42.700;23.304;2023-03-23T03:56:34;95111.72;;;8.59;100.00
5500;BME280;2772;42.700;23.304;2023-03-23T03:59:03;95107.28;;;8.55;100.00
5500;BME280;2772;42.700;23.304;2023-03-23T04:01:30;95111.91;;;8.49;100.00
5500;BME280;2772;42.700;23.304;2023-03-23T04:03:57;95102.00;;;8.55;100.00
5500;BME280;2772;42.700;23.304;2023-03-23T04:06:24;95104.25;;;8.61;100.00
5500;BME280;2772;42.700;23.304;2023-03-23T04:08:54;95110.53;;;8.65;100.00
5500;BME280;2772;42.700;23.304;2023-03-23T04:11:21;95108.47;;;8.62;100.00
5500;BME280;2772;42.700;23.304;2023-03-23T04:13:47;95109.78;;;8.65;100.00
5500;BME280;2772;42.700;23.304;2023-03-23T04:16:14;95111.63;;;8.64;100.00
5500;BME280;2772;42.700;23.304;2023-03-23T04:18:42;95112.72;;;8.63;100.00
5500;BME280;2772;42.700;23.304;2023-03-23T04:21:09;95118.81;;;8.64;100.00
5500;BME280;2772;42.700;23.304;2023-03-23T04:23:36;95125.00;;;8.59;100.00
5500;BME280;2772;42.700;23.304;2023-03-23T04:26:05;95115.63;;;8.48;100.00
5500;BME280;2772;42.700;23.304;2023-03-23T04:28:32;95116.50;;;8.44;100.00
5500;BME280;2772;42.700;23.304;2023-03-23T04:30:59;95114.16;;;8.42;100.00
5500;BME280;2772;42.700;23.304;2023-03-23T04:33:29;95113.34;;;8.42;100.00
5500;BME280;2772;42.700;23.304;2023-03-23T04:35:59;95114.56;;;8.49;100.00
5500;BME280;2772;42.700;23.304;2023-03-23T04:38:28;95110.75;;;8.55;100.00
5500;BME280;2772;42.700;23.304;2023-03-23T04:40:58;95114.28;;;8.64;100.00
5500;BME280;2772;42.700;23.304;2023-03-23T04:43:28;95121.75;;;8.62;100.00
5500;BME280;2772;42.700;23.304;2023-03-23T04:45:55;95127.66;;;8.73;100.00
5500;BME280;2772;42.700;23.304;2023-03-23T04:48:22;95123.13;;;8.60;100.00
5500;BME280;2772;42.700;23.304;2023-03-23T04:50:49;95128.94;;;8.62;100.00
5500;BME280;2772;42.700;23.304;2023-03-23T04:53:17;95127.28;;;8.66;100.00
5500;BME280;2772;42.700;23.304;2023-03-23T04:55:44;95122.34;;;8.59;100.00
5500;BME280;2772;42.700;23.304;2023-03-23T04:58:13;95126.28;;;8.62;100.00
5500;BME280;2772;42.700;23.304;2023-03-23T05:00:42;95123.63;;;8.62;100.00
5500;BME280;2772;42.700;23.304;2023-03-23T05:03:15;95133.44;;;8.48;100.00
5500;BME280;2772;42.700;23.304;2023-03-23T05:05:42;95142.38;;;8.52;100.00
5500;BME280;2772;42.700;23.304;2023-03-23T05:08:12;95136.84;;;8.35;100.00
5500;BME280;2772;42.700;23.304;2023-03-23T05:10:39;95148.16;;;8.22;100.00
5500;BME280;2772;42.700;23.304;2023-03-23T05:13:06;95146.56;;;8.26;100.00
5500;BME280;2772;42.700;23.304;2023-03-23T05:15:32;95139.88;;;8.28;100.00
5500;BME280;2772;42.700;23.304;2023-03-23T05:18:02;95135.13;;;8.25;100.00
5500;BME280;2772;42.700;23.304;2023-03-23T05:20:29;95147.97;;;8.37;100.00
5500;BME280;2772;42.700;23.304;2023-03-23T05:22:56;95145.78;;;8.20;100.00
5500;BME280;2772;42.700;23.304;2023-03-23T05:25:23;95154.63;;;8.34;100.00
5500;BME280;2772;42.700;23.304;2023-03-23T05:27:49;95156.59;;;8.42;100.00
5500;BME280;2772;42.700;23.304;2023-03-23T05:30:19;95164.06;;;8.40;100.00
5500;BME280;2772;42.700;23.304;2023-03-23T05:32:46;95151.88;;;8.39;100.00
5500;BME280;2772;42.700;23.304;2023-03-23T05:35:18;95155.44;;;8.48;100.00
5500;BME280;2772;42.700;23.304;2023-03-23T05:37:45;95161.84;;;8.47;100.00
5500;BME280;2772;42.700;23.304;2023-03-23T05:40:12;95165.59;;;8.60;100.00
5500;BME280;2772;42.700;23.304;2023-03-23T05:42:40;95171.22;;;8.58;100.00
5500;BME280;2772;42.700;23.304;2023-03-23T05:45:08;95169.44;;;8.54;100.00
5500;BME280;2772;42.700;23.304;2023-03-23T05:47:36;95173.63;;;8.41;100.00
5500;BME280;2772;42.700;23.304;2023-03-23T05:50:03;95178.56;;;8.48;100.00
5500;BME280;2772;42.700;23.304;2023-03-23T05:52:33;95180.56;;;8.37;100.00
5500;BME280;2772;42.700;23.304;2023-03-23T05:55:01;95179.91;;;8.45;100.00
5500;BME280;2772;42.700;23.304;2023-03-23T05:57:29;95176.44;;;8.13;100.00
5500;BME280;2772;42.700;23.304;2023-03-23T05:59:56;95180.00;;;8.22;100.00
5500;BME280;2772;42.700;23.304;2023-03-23T06:02:24;95171.34;;;8.35;100.00
5500;BME280;2772;42.700;23.304;2023-03-23T06:04:53;95178.06;;;8.46;100.00
5500;BME280;2772;42.700;23.304;2023-03-23T06:07:23;95181.28;;;8.43;100.00
5500;BME280;2772;42.700;23.304;2023-03-23T06:09:52;95183.94;;;8.43;100.00
5500;BME280;2772;42.700;23.304;2023-03-23T06:12:19;95190.81;;;8.44;100.00
5500;BME280;2772;42.700;23.304;2023-03-23T06:14:45;95190.19;;;8.65;100.00
5500;BME280;2772;42.700;23.304;2023-03-23T06:17:14;95188.34;;;8.79;100.00
5500;BME280;2772;42.700;23.304;2023-03-23T06:19:41;95184.34;;;8.82;100.00
5500;BME280;2772;42.700;23.304;2023-03-23T06:22:08;95180.50;;;9.01;100.00
5500;BME280;2772;42.700;23.304;2023-03-23T06:24:36;95190.84;;;9.03;100.00
5500;BME280;2772;42.700;23.304;2023-03-23T06:27:04;95189.94;;;9.07;100.00
5500;BME280;2772;42.700;23.304;2023-03-23T06:29:31;95187.59;;;9.06;100.00
5500;BME280;2772;42.700;23.304;2023-03-23T06:32:00;95197.25;;;9.02;100.00
5500;BME280;2772;42.700;23.304;2023-03-23T06:34:27;95187.91;;;9.18;100.00
5500;BME280;2772;42.700;23.304;2023-03-23T06:36:55;95194.31;;;9.30;100.00
5500;BME280;2772;42.700;23.304;2023-03-23T06:39:21;95194.28;;;9.44;100.00
5500;BME280;2772;42.700;23.304;2023-03-23T06:41:49;95193.22;;;9.31;100.00
5500;BME280;2772;42.700;23.304;2023-03-23T06:44:17;95201.88;;;9.37;100.00
5500;BME280;2772;42.700;23.304;2023-03-23T06:46:44;95201.28;;;9.40;100.00
5500;BME280;2772;42.700;23.304;2023-03-23T06:49:11;95211.63;;;9.55;100.00
5500;BME280;2772;42.700;23.304;2023-03-23T06:51:37;95201.78;;;9.42;100.00
5500;BME280;2772;42.700;23.304;2023-03-23T06:54:04;95201.75;;;9.55;100.00
5500;BME280;2772;42.700;23.304;2023-03-23T06:56:31;95213.59;;;9.63;100.00
5500;BME280;2772;42.700;23.304;2023-03-23T06:58:58;95209.41;;;9.84;100.00
5500;BME280;2772;42.700;23.304;2023-03-23T07:01:26;95210.84;;;10.17;100.00
5500;BME280;2772;42.700;23.304;2023-03-23T07:03:53;95208.41;;;10.29;100.00
5500;BME280;2772;42.700;23.304;2023-03-23T07:06:21;95212.78;;;10.25;100.00
5500;BME280;2772;42.700;23.304;2023-03-23T07:08:48;95214.25;;;10.31;100.00
5500;BME280;2772;42.700;23.304;2023-03-23T07:11:15;95221.59;;;10.12;100.00
5500;BME280;2772;42.700;23.304;2023-03-23T07:13:41;95215.44;;;10.25;100.00
5500;BME280;2772;42.700;23.304;2023-03-23T07:16:08;95220.28;;;10.45;100.00
5500;BME280;2772;42.700;23.304;2023-03-23T07:18:37;95214.28;;;10.62;100.00
5500;BME280;2772;42.700;23.304;2023-03-23T07:21:04;95213.03;;;10.81;100.00
5500;BME280;2772;42.700;23.304;2023-03-23T07:23:31;95223.88;;;10.85;100.00
5500;BME280;2772;42.700;23.304;2023-03-23T07:25:58;95219.41;;;11.02;100.00
5500;BME280;2772;42.700;23.304;2023-03-23T07:28:26;95218.38;;;10.90;100.00
5500;BME280;2772;42.700;23.304;2023-03-23T07:30:52;95223.66;;;11.03;100.00
5500;BME280;2772;42.700;23.304;2023-03-23T07:33:19;95221.94;;;11.07;100.00
5500;BME280;2772;42.700;23.304;2023-03-23T07:35:48;95219.53;;;11.28;100.00
5500;BME280;2772;42.700;23.304;2023-03-23T07:38:14;95229.63;;;11.40;100.00
5500;BME280;2772;42.700;23.304;2023-03-23T07:40:41;95222.91;;;11.51;100.00
5500;BME280;2772;42.700;23.304;2023-03-23T07:43:08;95238.59;;;11.52;100.00
5500;BME280;2772;42.700;23.304;2023-03-23T07:45:35;95239.63;;;11.65;100.00
5500;BME280;2772;42.700;23.304;2023-03-23T07:48:01;95233.81;;;11.63;100.00
5500;BME280;2772;42.700;23.304;2023-03-23T07:50:28;95238.63;;;11.61;100.00
5500;BME280;2772;42.700;23.304;2023-03-23T07:52:57;95237.94;;;11.77;100.00
5500;BME280;2772;42.700;23.304;2023-03-23T07:55:25;95227.91;;;11.91;100.00
5500;BME280;2772;42.700;23.304;2023-03-23T07:57:53;95239.53;;;11.87;100.00
5500;BME280;2772;42.700;23.304;2023-03-23T08:00:22;95248.63;;;11.86;100.00
5500;BME280;2772;42.700;23.304;2023-03-23T08:02:51;95244.41;;;11.93;100.00
5500;BME280;2772;42.700;23.304;2023-03-23T08:05:19;95247.59;;;12.12;100.00
5500;BME280;2772;42.700;23.304;2023-03-23T08:07:48;95246.63;;;12.00;100.00
5500;BME280;2772;42.700;23.304;2023-03-23T08:10:16;95246.34;;;12.10;100.00
5500;BME280;2772;42.700;23.304;2023-03-23T08:12:44;95249.31;;;12.17;100.00
5500;BME280;2772;42.700;23.304;2023-03-23T08:15:15;95251.06;;;12.30;100.00
5500;BME280;2772;42.700;23.304;2023-03-23T08:17:41;95244.31;;;12.24;100.00
5500;BME280;2772;42.700;23.304;2023-03-23T08:20:09;95240.88;;;12.40;100.00
5500;BME280;2772;42.700;23.304;2023-03-23T08:22:39;95247.78;;;12.41;100.00
5500;BME280;2772;42.700;23.304;2023-03-23T08:25:08;95246.19;;;12.49;100.00
5500;BME280;2772;42.700;23.304;2023-03-23T08:27:36;95250.59;;;12.45;100.00
5500;BME280;2772;42.700;23.304;2023-03-23T08:30:08;95241.81;;;12.53;100.00
5500;BME280;2772;42.700;23.304;2023-03-23T08:32:36;95247.44;;;12.60;100.00
5500;BME280;2772;42.700;23.304;2023-03-23T08:35:03;95244.00;;;12.76;100.00
5500;BME280;2772;42.700;23.304;2023-03-23T08:37:30;95260.34;;;12.75;100.00
5500;BME280;2772;42.700;23.304;2023-03-23T08:39:57;95251.38;;;12.71;100.00
5500;BME280;2772;42.700;23.304;2023-03-23T08:42:24;95245.88;;;12.76;100.00
5500;BME280;2772;42.700;23.304;2023-03-23T08:44:52;95240.06;;;12.82;100.00
5500;BME280;2772;42.700;23.304;2023-03-23T08:47:19;95250.56;;;12.96;100.00
5500;BME280;2772;42.700;23.304;2023-03-23T08:49:45;95255.16;;;13.13;100.00
5500;BME280;2772;42.700;23.304;2023-03-23T08:52:12;95258.13;;;13.11;100.00
5500;BME280;2772;42.700;23.304;2023-03-23T08:54:40;95249.16;;;13.16;100.00
5500;BME280;2772;42.700;23.304;2023-03-23T08:57:12;95249.13;;;13.33;100.00
5500;BME280;2772;42.700;23.304;2023-03-23T08:59:41;95246.88;;;13.43;100.00
5500;BME280;2772;42.700;23.304;2023-03-23T09:02:10;95252.97;;;13.52;100.00
5500;BME280;2772;42.700;23.304;2023-03-23T09:04:38;95254.03;;;13.60;100.00
5500;BME280;2772;42.700;23.304;2023-03-23T09:07:08;95258.41;;;13.73;100.00
5500;BME280;2772;42.700;23.304;2023-03-23T09:09:34;95265.22;;;13.62;100.00
5500;BME280;2772;42.700;23.304;2023-03-23T09:12:01;95258.44;;;13.64;100.00
5500;BME280;2772;42.700;23.304;2023-03-23T09:14:28;95252.78;;;13.57;100.00
5500;BME280;2772;42.700;23.304;2023-03-23T09:16:55;95257.41;;;13.48;100.00
5500;BME280;2772;42.700;23.304;2023-03-23T09:19:23;95249.88;;;13.42;100.00
5500;BME280;2772;42.700;23.304;2023-03-23T09:21:50;95260.72;;;13.45;100.00
5500;BME280;2772;42.700;23.304;2023-03-23T09:24:17;95258.38;;;13.35;100.00
5500;BME280;2772;42.700;23.304;2023-03-23T09:26:44;95247.97;;;13.42;100.00
5500;BME280;2772;42.700;23.304;2023-03-23T09:29:11;95258.97;;;13.49;100.00
5500;BME280;2772;42.700;23.304;2023-03-23T09:31:38;95247.50;;;13.49;100.00
5500;BME280;2772;42.700;23.304;2023-03-23T09:34:05;95252.66;;;13.54;100.00
5500;BME280;2772;42.700;23.304;2023-03-23T09:36:36;95243.53;;;13.55;100.00
5500;BME280;2772;42.700;23.304;2023-03-23T09:39:04;95246.63;;;13.65;100.00
5500;BME280;2772;42.700;23.304;2023-03-23T09:41:46;95235.56;;;13.75;100.00
5500;BME280;2772;42.700;23.304;2023-03-23T09:44:22;95242.09;;;13.86;98.29
5500;BME280;2772;42.700;23.304;2023-03-23T09:46:58;95233.25;;;13.94;95.49
5500;BME280;2772;42.700;23.304;2023-03-23T09:49:30;95241.09;;;13.99;95.32
5500;BME280;2772;42.700;23.304;2023-03-23T09:52:03;95240.72;;;14.09;94.91
5500;BME280;2772;42.700;23.304;2023-03-23T09:54:34;95238.97;;;14.13;94.96
5500;BME280;2772;42.700;23.304;2023-03-23T09:57:03;95235.50;;;14.13;94.49
5500;BME280;2772;42.700;23.304;2023-03-23T09:59:36;95242.25;;;14.19;92.95
5500;BME280;2772;42.700;23.304;2023-03-23T10:02:12;95228.34;;;14.25;92.86
5500;BME280;2772;42.700;23.304;2023-03-23T10:04:44;95235.78;;;14.20;93.35
5500;BME280;2772;42.700;23.304;2023-03-23T10:07:15;95234.53;;;14.17;92.95
5500;BME280;2772;42.700;23.304;2023-03-23T10:09:45;95227.59;;;14.16;93.19
5500;BME280;2772;42.700;23.304;2023-03-23T10:12:20;95226.38;;;14.14;91.51
5500;BME280;2772;42.700;23.304;2023-03-23T10:15:03;95222.66;;;14.27;91.75
5500;BME280;2772;42.700;23.304;2023-03-23T10:17:33;95218.69;;;14.33;90.77
5500;BME280;2772;42.700;23.304;2023-03-23T10:20:17;95225.75;;;14.38;90.10
5500;BME280;2772;42.700;23.304;2023-03-23T10:22:49;95230.97;;;14.34;87.29
5500;BME280;2772;42.700;23.304;2023-03-23T10:25:21;95226.75;;;14.33;89.06
5500;BME280;2772;42.700;23.304;2023-03-23T10:27:54;95222.81;;;14.30;90.26
5500;BME280;2772;42.700;23.304;2023-03-23T10:30:25;95229.41;;;14.33;88.88
5500;BME280;2772;42.700;23.304;2023-03-23T10:32:57;95218.38;;;14.35;87.58
5500;BME280;2772;42.700;23.304;2023-03-23T10:35:27;95225.84;;;14.20;88.22
5500;BME280;2772;42.700;23.304;2023-03-23T10:38:01;95217.34;;;14.18;90.14
5500;BME280;2772;42.700;23.304;2023-03-23T10:40:30;95208.66;;;14.21;90.73
5500;BME280;2772;42.700;23.304;2023-03-23T10:42:58;95212.56;;;14.32;92.23
5500;BME280;2772;42.700;23.304;2023-03-23T10:45:26;95219.34;;;14.51;94.74
5500;BME280;2772;42.700;23.304;2023-03-23T10:47:57;95207.06;;;14.50;93.36
5500;BME280;2772;42.700;23.304;2023-03-23T10:50:29;95209.13;;;14.65;91.41
5500;BME280;2772;42.700;23.304;2023-03-23T10:52:59;95210.19;;;14.72;89.49
5500;BME280;2772;42.700;23.304;2023-03-23T10:55:36;95203.03;;;14.76;88.36
5500;BME280;2772;42.700;23.304;2023-03-23T10:58:05;95205.44;;;14.90;87.84
5500;BME280;2772;42.700;23.304;2023-03-23T11:00:40;95211.00;;;14.85;84.06
5500;BME280;2772;42.700;23.304;2023-03-23T11:03:23;95207.78;;;14.91;84.24
5500;BME280;2772;42.700;23.304;2023-03-23T11:05:53;95202.22;;;14.96;84.33
5500;BME280;2772;42.700;23.304;2023-03-23T11:08:25;95201.88;;;14.98;83.34
5500;BME280;2772;42.700;23.304;2023-03-23T11:10:56;95192.16;;;15.05;84.71
5500;BME280;2772;42.700;23.304;2023-03-23T11:13:28;95188.28;;;15.15;84.05
5500;BME280;2772;42.700;23.304;2023-03-23T11:15:56;95189.19;;;15.19;82.96
5500;BME280;2772;42.700;23.304;2023-03-23T11:18:25;95181.72;;;15.24;83.26
5500;BME280;2772;42.700;23.304;2023-03-23T11:20:54;95180.56;;;15.25;83.17
5500;BME280;2772;42.700;23.304;2023-03-23T11:23:26;95177.91;;;15.25;81.09
5500;BME280;2772;42.700;23.304;2023-03-23T11:25:58;95179.81;;;15.25;81.24
5500;BME280;2772;42.700;23.304;2023-03-23T11:28:29;95170.63;;;15.14;82.93
5500;BME280;2772;42.700;23.304;2023-03-23T11:30:58;95164.38;;;15.22;82.20
5500;BME280;2772;42.700;23.304;2023-03-23T11:33:29;95171.19;;;15.19;81.03
5500;BME280;2772;42.700;23.304;2023-03-23T11:35:56;95161.56;;;15.18;80.84
5500;BME280;2772;42.700;23.304;2023-03-23T11:38:25;95160.16;;;15.33;82.08
5500;BME280;2772;42.700;23.304;2023-03-23T11:40:54;95155.47;;;15.42;81.87
5500;BME280;2772;42.700;23.304;2023-03-23T11:43:22;95152.13;;;15.45;79.32
5500;BME280;2772;42.700;23.304;2023-03-23T11:46:09;95154.81;;;15.57;79.14
5500;BME280;2772;42.700;23.304;2023-03-23T11:48:42;95158.16;;;15.54;78.04
5500;BME280;2772;42.700;23.304;2023-03-23T11:51:13;95144.41;;;15.43;79.04
5500;BME280;2772;42.700;23.304;2023-03-23T11:53:48;95157.06;;;15.55;80.41
5500;BME280;2772;42.700;23.304;2023-03-23T11:56:23;95152.91;;;15.57;79.52
5500;BME280;2772;42.700;23.304;2023-03-23T11:58:53;95149.44;;;15.57;79.56
5500;BME280;2772;42.700;23.304;2023-03-23T12:01:36;95145.06;;;15.52;78.00
5500;BME280;2772;42.700;23.304;2023-03-23T12:04:30;95141.72;;;15.55;78.24
5500;BME280;2772;42.700;23.304;2023-03-23T12:07:09;95140.16;;;15.54;77.45
5500;BME280;2772;42.700;23.304;2023-03-23T12:09:47;95141.38;;;15.45;78.29
5500;BME280;2772;42.700;23.304;2023-03-23T12:12:24;95139.72;;;15.52;77.91
5500;BME280;2772;42.700;23.304;2023-03-23T12:14:59;95135.81;;;15.50;75.98
5500;BME280;2772;42.700;23.304;2023-03-23T12:17:37;95131.53;;;15.49;75.60
5500;BME280;2772;42.700;23.304;2023-03-23T12:20:22;95133.66;;;15.55;74.57
5500;BME280;2772;42.700;23.304;2023-03-23T12:23:02;95132.56;;;15.56;77.10
5500;BME280;2772;42.700;23.304;2023-03-23T12:25:49;95126.59;;;15.63;76.22
5500;BME280;2772;42.700;23.304;2023-03-23T12:28:25;95123.13;;;15.74;76.99
5500;BME280;2772;42.700;23.304;2023-03-23T12:31:00;95123.13;;;15.74;76.28
5500;BME280;2772;42.700;23.304;2023-03-23T12:33:37;95117.53;;;15.67;75.70
5500;BME280;2772;42.700;23.304;2023-03-23T12:36:19;95132.75;;;15.75;76.53
5500;BME280;2772;42.700;23.304;2023-03-23T12:39:08;95114.75;;;15.76;75.44
5500;BME280;2772;42.700;23.304;2023-03-23T12:41:42;95121.09;;;15.83;74.71
5500;BME280;2772;42.700;23.304;2023-03-23T12:44:13;95102.75;;;15.85;76.25
5500;BME280;2772;42.700;23.304;2023-03-23T12:47:02;95107.97;;;15.94;76.40
5500;BME280;2772;42.700;23.304;2023-03-23T12:49:35;95107.06;;;16.02;76.27
5500;BME280;2772;42.700;23.304;2023-03-23T12:52:11;95104.94;;;16.08;75.47
5500;BME280;2772;42.700;23.304;2023-03-23T12:54:44;95095.16;;;16.15;75.24
5500;BME280;2772;42.700;23.304;2023-03-23T12:57:21;95102.22;;;16.20;72.07
5500;BME280;2772;42.700;23.304;2023-03-23T12:59:56;95098.50;;;16.24;73.44
5500;BME280;2772;42.700;23.304;2023-03-23T13:02:29;95099.38;;;16.28;72.19
5500;BME280;2772;42.700;23.304;2023-03-23T13:05:00;95104.44;;;16.18;71.63
5500;BME280;2772;42.700;23.304;2023-03-23T13:07:33;95089.47;;;16.17;72.91
5500;BME280;2772;42.700;23.304;2023-03-23T13:10:04;95095.81;;;16.24;73.24
5500;BME280;2772;42.700;23.304;2023-03-23T13:12:36;95088.53;;;16.25;74.10
5500;BME280;2772;42.700;23.304;2023-03-23T13:15:16;95093.56;;;16.26;72.65
5500;BME280;2772;42.700;23.304;2023-03-23T13:17:50;95081.91;;;16.22;71.26
5500;BME280;2772;42.700;23.304;2023-03-23T13:20:37;95093.00;;;16.21;71.32
5500;BME280;2772;42.700;23.304;2023-03-23T13:23:10;95086.75;;;16.17;70.97
5500;BME280;2772;42.700;23.304;2023-03-23T13:25:47;95079.69;;;16.24;72.88
5500;BME280;2772;42.700;23.304;2023-03-23T13:28:16;95077.56;;;16.18;71.21